Time;durP1;ratioP1;P1;durP2;ratioP2;P2;SDS_P1;SDS_P2;PMS_P1;PMS_P2;Temp;Humidity;BMP_temperature;BMP_pressure;BME280_temperature;BME280_humidity;BME280_pressure;Samples;Min_cycle;Max_cycle;Signal;HPM_P1;HPM_P2
2021/09/18 00:02:02;;;;;;;23.87;20.20;;;;;;;;;;5055434;28;20497;-79
2021/09/18 00:04:28;;;;;;;23.27;20.97;;;;;;;;;;5054524;28;20831;-79
2021/09/18 00:06:54;;;;;;;24.70;18.90;;;;;;;;;;5055572;28;20507;-78
2021/09/18 00:09:20;;;;;;;24.43;21.67;;;;;;;;;;5055634;28;20499;-79
2021/09/18 00:11:46;;;;;;;27.30;21.27;;;;;;;;;;5055230;28;20436;-79
2021/09/18 00:14:12;;;;;;;26.60;22.33;;;;;;;;;;5055623;28;20513;-79
2021/09/18 00:16:38;;;;;;;26.90;23.90;;;;;;;;;;5055552;28;20534;-80
2021/09/18 00:19:04;;;;;;;24.77;22.17;;;;;;;;;;5055425;28;20411;-80
2021/09/18 00:21:30;;;;;;;24.77;20.70;;;;;;;;;;5055054;28;20424;-80
2021/09/18 00:23:56;;;;;;;24.37;21.77;;;;;;;;;;5055269;28;20408;-78
2021/09/18 00:26:23;;;;;;;23.00;20.60;;;;;;;;;;5053963;28;20420;-77
2021/09/18 00:28:48;;;;;;;23.37;21.00;;;;;;;;;;5053890;28;20430;-78
2021/09/18 00:31:15;;;;;;;24.30;19.40;;;;;;;;;;5054840;28;20813;-79
2021/09/18 00:33:41;;;;;;;20.90;18.70;;;;;;;;;;5054978;28;20499;-79
2021/09/18 00:36:06;;;;;;;21.77;19.50;;;;;;;;;;5055120;28;20416;-78
2021/09/18 00:38:32;;;;;;;22.77;19.40;;;;;;;;;;5055031;28;20407;-80
2021/09/18 00:40:58;;;;;;;21.10;19.07;;;;;;;;;;5054478;28;20447;-78
2021/09/18 00:43:25;;;;;;;20.83;18.80;;;;;;;;;;5054936;28;20495;-77
2021/09/18 00:45:50;;;;;;;21.60;19.30;;;;;;;;;;5054898;28;20526;-79
2021/09/18 00:48:16;;;;;;;20.47;18.30;;;;;;;;;;5054977;28;20412;-78
2021/09/18 00:50:43;;;;;;;20.90;18.70;;;;;;;;;;5054409;28;20416;-79
2021/09/18 00:53:09;;;;;;;18.93;17.00;;;;;;;;;;5054412;28;20423;-79
2021/09/18 00:55:35;;;;;;;19.43;17.43;;;;;;;;;;5054702;28;20458;-78
2021/09/18 00:58:01;;;;;;;19.93;17.87;;;;;;;;;;5054637;28;20851;-77
2021/09/18 01:00:27;;;;;;;24.63;19.13;;;;;;;;;;5054641;28;20498;-77
2021/09/18 01:02:53;;;;;;;22.17;17.97;;;;;;;;;;5054273;28;20442;-78
2021/09/18 01:05:19;;;;;;;19.43;17.43;;;;;;;;;;5053584;28;20454;-78
2021/09/18 01:07:45;;;;;;;19.67;17.57;;;;;;;;;;5054582;28;20504;-79
2021/09/18 01:10:11;;;;;;;17.60;15.53;;;;;;;;;;5054744;28;20861;-80
2021/09/18 01:12:56;;;;;;;19.23;17.43;;;;;;;;;;5054003;28;20459;-78
2021/09/18 01:15:22;;;;;;;21.07;17.40;;;;;;;;;;5054321;28;20463;-80
2021/09/18 01:17:48;;;;;;;18.37;16.10;;;;;;;;;;5054461;28;20860;-79
2021/09/18 01:20:14;;;;;;;20.70;17.43;;;;;;;;;;5054306;28;20462;-78
2021/09/18 01:22:40;;;;;;;18.17;16.27;;;;;;;;;;5053901;28;20436;-79
2021/09/18 01:25:06;;;;;;;18.67;16.83;;;;;;;;;;5054045;28;20435;-78
2021/09/18 01:27:32;;;;;;;18.10;15.77;;;;;;;;;;5054052;28;20451;-78
2021/09/18 01:29:58;;;;;;;21.83;17.10;;;;;;;;;;5052974;28;20458;-77
2021/09/18 01:32:24;;;;;;;17.63;15.83;;;;;;;;;;5053622;28;20436;-79
2021/09/18 01:34:50;;;;;;;18.90;16.90;;;;;;;;;;5053891;28;20503;-80
2021/09/18 01:37:16;;;;;;;21.63;18.57;;;;;;;;;;5054030;28;20920;-79
2021/09/18 01:39:42;;;;;;;19.40;17.33;;;;;;;;;;5053924;28;20404;-78
2021/09/18 01:42:08;;;;;;;19.37;15.57;;;;;;;;;;5052324;28;20455;-80
2021/09/18 01:44:34;;;;;;;18.37;16.43;;;;;;;;;;5053758;28;20901;-79
2021/09/18 01:46:59;;;;;;;19.90;16.30;;;;;;;;;;5053781;28;20485;-78
2021/09/18 01:49:27;;;;;;;18.17;15.37;;;;;;;;;;5053594;28;20461;-77
2021/09/18 01:51:57;;;;;;;16.53;14.90;;;;;;;;;;5053320;28;21037;-79
2021/09/18 01:54:23;;;;;;;15.97;14.40;;;;;;;;;;5053830;28;20541;-79
2021/09/18 01:56:49;;;;;;;16.87;15.07;;;;;;;;;;5053939;28;20771;-78
2021/09/18 01:59:15;;;;;;;16.83;15.07;;;;;;;;;;5053423;28;20405;-80
2021/09/18 02:01:41;;;;;;;17.57;15.60;;;;;;;;;;5051888;28;20436;-80
2021/09/18 02:04:07;;;;;;;17.00;15.40;;;;;;;;;;5053003;28;20416;-78
2021/09/18 02:06:33;;;;;;;17.77;14.57;;;;;;;;;;5053465;28;20913;-77
2021/09/18 02:08:59;;;;;;;18.03;16.23;;;;;;;;;;5053515;28;20419;-79
2021/09/18 02:11:25;;;;;;;18.07;16.33;;;;;;;;;;5052925;28;20497;-78
2021/09/18 02:13:51;;;;;;;14.87;13.57;;;;;;;;;;5053079;28;20991;-78
2021/09/18 02:16:17;;;;;;;21.37;16.07;;;;;;;;;;5053311;28;20414;-76
2021/09/18 02:18:43;;;;;;;20.00;16.27;;;;;;;;;;5053304;28;20408;-78
2021/09/18 02:21:09;;;;;;;23.43;16.17;;;;;;;;;;5034987;28;20507;-78
2021/09/18 02:23:35;;;;;;;16.70;15.00;;;;;;;;;;5054535;28;20412;-80
2021/09/18 02:26:01;;;;;;;19.27;14.77;;;;;;;;;;5052090;28;20462;-78
2021/09/18 02:28:27;;;;;;;21.03;14.37;;;;;;;;;;5053145;28;20415;-78
2021/09/18 02:30:53;;;;;;;14.13;12.67;;;;;;;;;;5051409;28;20455;-76
2021/09/18 02:33:19;;;;;;;14.90;13.20;;;;;;;;;;5051625;28;20493;-80
2021/09/18 02:35:45;;;;;;;14.10;12.60;;;;;;;;;;5052857;28;20812;-78
2021/09/18 02:38:11;;;;;;;17.77;13.17;;;;;;;;;;5053014;28;20404;-79
2021/09/18 02:40:39;;;;;;;14.80;13.30;;;;;;;;;;5052856;28;20504;-79
2021/09/18 02:43:05;;;;;;;16.70;14.37;;;;;;;;;;5052921;28;20424;-79
2021/09/18 02:45:31;;;;;;;15.60;13.37;;;;;;;;;;5052781;28;20473;-78
2021/09/18 02:47:57;;;;;;;18.40;14.87;;;;;;;;;;5051548;28;20408;-80
2021/09/18 02:50:23;;;;;;;16.37;14.10;;;;;;;;;;5052842;28;20409;-81
2021/09/18 02:52:49;;;;;;;15.70;14.20;;;;;;;;;;5052507;28;20443;-79
2021/09/18 02:55:16;;;;;;;15.57;14.07;;;;;;;;;;5052765;28;20463;-78
2021/09/18 02:57:43;;;;;;;14.80;13.30;;;;;;;;;;5052879;28;20469;-78
2021/09/18 03:00:09;;;;;;;13.90;12.50;;;;;;;;;;5052802;28;20827;-79
2021/09/18 03:02:36;;;;;;;17.07;14.23;;;;;;;;;;5052447;28;20436;-77
2021/09/18 03:05:02;;;;;;;16.57;14.97;;;;;;;;;;5052973;28;20897;-80
2021/09/18 03:07:28;;;;;;;17.53;15.73;;;;;;;;;;5052844;28;20517;-78
2021/09/18 03:09:54;;;;;;;18.80;16.07;;;;;;;;;;5053020;28;20474;-80
2021/09/18 03:12:20;;;;;;;14.90;13.33;;;;;;;;;;5051083;28;20535;-80
2021/09/18 03:14:46;;;;;;;17.07;14.83;;;;;;;;;;5052809;28;21026;-80
2021/09/18 03:17:12;;;;;;;15.27;13.70;;;;;;;;;;5054460;28;20415;-78
2021/09/18 03:19:38;;;;;;;20.63;15.27;;;;;;;;;;5056685;28;20779;-78
2021/09/18 03:22:04;;;;;;;18.17;16.23;;;;;;;;;;5054767;28;20428;-79
2021/09/18 03:24:30;;;;;;;16.70;15.00;;;;;;;;;;5055335;28;20412;-78
2021/09/18 03:26:57;;;;;;;17.73;15.20;;;;;;;;;;5056527;28;20416;-79
2021/09/18 03:29:24;;;;;;;16.03;14.43;;;;;;;;;;5056364;28;20408;-78
2021/09/18 03:31:50;;;;;;;18.20;14.60;;;;;;;;;;5056017;28;20428;-77
2021/09/18 03:34:16;;;;;;;15.80;13.67;;;;;;;;;;5056133;28;20550;-79
2021/09/18 03:36:42;;;;;;;16.67;13.83;;;;;;;;;;5056336;28;20501;-78
2021/09/18 03:39:08;;;;;;;16.20;14.50;;;;;;;;;;5056332;28;20412;-78
2021/09/18 03:41:34;;;;;;;18.30;15.00;;;;;;;;;;5055865;28;20427;-80
2021/09/18 03:44:00;;;;;;;15.40;13.87;;;;;;;;;;5056035;28;20485;-79
2021/09/18 03:46:26;;;;;;;16.07;14.30;;;;;;;;;;5055922;28;20507;-77
2021/09/18 03:48:52;;;;;;;18.97;15.80;;;;;;;;;;5056017;28;20889;-77
2021/09/18 03:51:18;;;;;;;17.50;15.10;;;;;;;;;;5055568;28;20435;-81
2021/09/18 03:53:44;;;;;;;15.90;13.63;;;;;;;;;;5054694;28;20816;-77
2021/09/18 03:56:10;;;;;;;16.53;14.60;;;;;;;;;;5055795;28;20423;-80
2021/09/18 03:58:36;;;;;;;16.80;14.50;;;;;;;;;;5055728;28;20489;-81
2021/09/18 04:01:02;;;;;;;16.97;15.23;;;;;;;;;;5054251;28;20412;-80
2021/09/18 04:03:28;;;;;;;16.23;14.53;;;;;;;;;;5055711;28;20474;-78
2021/09/18 04:05:54;;;;;;;15.60;13.93;;;;;;;;;;5054828;28;20412;-81
2021/09/18 04:08:19;;;;;;;17.87;13.73;;;;;;;;;;5054502;28;20771;-79
2021/09/18 04:10:46;;;;;;;17.20;13.73;;;;;;;;;;5055209;28;20435;-78
2021/09/18 04:13:12;;;;;;;16.83;14.80;;;;;;;;;;5055404;28;20794;-79
2021/09/18 04:15:38;;;;;;;17.10;14.80;;;;;;;;;;5054247;28;20574;-78
2021/09/18 04:18:04;;;;;;;19.83;14.87;;;;;;;;;;5055405;28;20257;-79
2021/09/18 04:20:30;;;;;;;21.00;14.80;;;;;;;;;;5055371;28;20411;-79
2021/09/18 04:22:56;;;;;;;19.98;14.48;;;;;;;;;;5053978;28;20201;-79
2021/09/18 04:25:22;;;;;;;22.17;15.23;;;;;;;;;;5055597;28;20700;-78
2021/09/18 04:27:48;;;;;;;18.27;15.20;;;;;;;;;;5055199;28;20416;-77
2021/09/18 04:30:14;;;;;;;16.27;14.67;;;;;;;;;;5055197;28;20964;-79
2021/09/18 04:32:40;;;;;;;19.90;15.90;;;;;;;;;;5054534;28;20510;-79
2021/09/18 04:35:06;;;;;;;19.93;15.03;;;;;;;;;;5055105;28;20559;-79
2021/09/18 04:37:33;;;;;;;15.20;13.50;;;;;;;;;;5053786;28;21007;-80
2021/09/18 04:39:58;;;;;;;16.75;15.05;;;;;;;;;;5055177;28;20897;-79
2021/09/18 04:42:24;;;;;;;18.60;14.37;;;;;;;;;;5054536;28;20251;-80
2021/09/18 04:44:50;;;;;;;17.67;15.80;;;;;;;;;;5054815;28;20781;-80
2021/09/18 04:47:16;;;;;;;18.03;13.93;;;;;;;;;;5054985;28;20408;-78
2021/09/18 04:49:42;;;;;;;15.40;13.03;;;;;;;;;;5054848;28;20412;-80
2021/09/18 04:52:08;;;;;;;16.47;13.33;;;;;;;;;;5053113;28;20992;-78
2021/09/18 04:54:34;;;;;;;14.00;12.70;;;;;;;;;;5054637;28;20495;-80
2021/09/18 04:57:00;;;;;;;18.23;15.40;;;;;;;;;;5054752;28;20452;-78
2021/09/18 04:59:26;;;;;;;14.50;13.10;;;;;;;;;;5054784;28;20461;-81
2021/09/18 05:01:52;;;;;;;17.50;13.90;;;;;;;;;;5054260;28;20419;-80
2021/09/18 05:04:18;;;;;;;18.77;13.30;;;;;;;;;;5053444;28;20477;-78
2021/09/18 05:06:44;;;;;;;18.07;15.47;;;;;;;;;;5054481;28;20823;-77
2021/09/18 05:09:10;;;;;;;18.77;14.23;;;;;;;;;;5054476;28;20424;-77
2021/09/18 05:11:36;;;;;;;16.40;14.10;;;;;;;;;;5054069;28;20443;-79
2021/09/18 05:14:02;;;;;;;14.55;13.02;;;;;;;;;;5053014;28;20460;-79
2021/09/18 05:16:28;;;;;;;16.05;14.35;;;;;;;;;;5054677;28;20176;-80
2021/09/18 05:18:55;;;;;;;17.60;15.00;;;;;;;;;;5054462;28;20521;-79
2021/09/18 05:21:21;;;;;;;15.75;13.27;;;;;;;;;;5054044;28;20268;-78
2021/09/18 05:23:47;;;;;;;17.33;13.77;;;;;;;;;;5054109;28;20282;-77
2021/09/18 05:26:13;;;;;;;16.03;14.27;;;;;;;;;;5054189;28;20494;-78
2021/09/18 05:28:39;;;;;;;18.23;14.80;;;;;;;;;;5053095;28;20412;-77
2021/09/18 05:31:05;;;;;;;20.60;16.10;;;;;;;;;;5053635;28;20404;-80
2021/09/18 05:33:31;;;;;;;17.93;13.83;;;;;;;;;;5053846;28;20424;-78
2021/09/18 05:35:56;;;;;;;17.70;15.57;;;;;;;;;;5053931;28;20416;-78
2021/09/18 05:38:23;;;;;;;17.67;15.83;;;;;;;;;;5053433;28;20404;-80
2021/09/18 05:40:49;;;;;;;18.90;15.50;;;;;;;;;;5052184;28;20415;-78
2021/09/18 05:43:15;;;;;;;21.30;15.68;;;;;;;;;;5053719;28;20194;-78
2021/09/18 05:45:41;;;;;;;17.70;15.60;;;;;;;;;;5053820;28;20182;-78
2021/09/18 05:48:07;;;;;;;17.93;15.90;;;;;;;;;;5054102;28;20413;-80
2021/09/18 05:50:34;;;;;;;18.08;15.95;;;;;;;;;;5053699;28;20401;-79
2021/09/18 05:53:00;;;;;;;17.40;15.60;;;;;;;;;;5035624;28;20690;-77
2021/09/18 05:55:26;;;;;;;19.10;15.80;;;;;;;;;;5053458;28;20201;-81
2021/09/18 05:57:52;;;;;;;20.60;17.20;;;;;;;;;;5053609;28;20408;-78
2021/09/18 06:00:18;;;;;;;22.07;16.43;;;;;;;;;;5053774;28;20204;-78
2021/09/18 06:02:44;;;;;;;18.90;15.93;;;;;;;;;;5053121;28;20428;-79
2021/09/18 06:05:11;;;;;;;20.10;16.67;;;;;;;;;;5053539;28;20408;-78
2021/09/18 06:07:37;;;;;;;19.60;17.33;;;;;;;;;;5052375;28;20443;-78
2021/09/18 06:10:03;;;;;;;23.00;16.50;;;;;;;;;;5052288;28;20416;-81
2021/09/18 06:12:29;;;;;;;21.13;16.57;;;;;;;;;;5053152;28;20816;-80
2021/09/18 06:14:55;;;;;;;22.03;17.23;;;;;;;;;;5053549;28;20455;-79
2021/09/18 06:17:21;;;;;;;22.30;18.43;;;;;;;;;;5053361;28;20780;-79
2021/09/18 06:19:47;;;;;;;24.30;17.93;;;;;;;;;;5053177;28;20447;-80
2021/09/18 06:22:13;;;;;;;18.60;16.30;;;;;;;;;;5052839;28;20424;-81
2021/09/18 06:24:40;;;;;;;21.00;16.30;;;;;;;;;;5053149;28;20438;-80
2021/09/18 06:27:06;;;;;;;18.93;16.77;;;;;;;;;;5053417;28;20419;-81
2021/09/18 06:29:32;;;;;;;20.47;18.37;;;;;;;;;;5051896;28;20415;-80
2021/09/18 06:31:58;;;;;;;21.10;16.83;;;;;;;;;;5052542;28;20435;-77
2021/09/18 06:34:24;;;;;;;23.20;16.80;;;;;;;;;;5052880;28;20798;-78
2021/09/18 06:36:50;;;;;;;21.97;18.07;;;;;;;;;;5052969;28;20403;-81
2021/09/18 06:39:16;;;;;;;20.07;17.70;;;;;;;;;;5053121;28;20721;-80
2021/09/18 06:41:42;;;;;;;19.47;17.37;;;;;;;;;;5052569;28;20443;-79
2021/09/18 06:44:08;;;;;;;19.33;16.33;;;;;;;;;;5051809;28;20423;-78
2021/09/18 06:46:34;;;;;;;21.53;17.43;;;;;;;;;;5051810;28;20494;-79
2021/09/18 06:49:00;;;;;;;21.37;17.63;;;;;;;;;;5052968;28;20481;-79
2021/09/18 06:51:26;;;;;;;17.63;15.87;;;;;;;;;;5055846;28;20431;-79
2021/09/18 06:53:52;;;;;;;18.30;16.33;;;;;;;;;;5056763;28;20478;-77
2021/09/18 06:56:18;;;;;;;18.37;16.57;;;;;;;;;;5056951;28;20771;-77
2021/09/18 06:58:44;;;;;;;18.97;16.77;;;;;;;;;;5057004;28;20408;-78
2021/09/18 07:01:10;;;;;;;18.03;15.97;;;;;;;;;;5055272;28;20433;-76
2021/09/18 07:03:36;;;;;;;18.03;16.20;;;;;;;;;;5046825;28;20425;-77
2021/09/18 07:06:02;;;;;;;18.60;16.37;;;;;;;;;;5051332;28;20420;-78
2021/09/18 07:08:28;;;;;;;18.53;15.90;;;;;;;;;;5053052;28;20416;-78
2021/09/18 07:10:54;;;;;;;19.93;15.87;;;;;;;;;;5036425;28;20417;-79
2021/09/18 07:13:20;;;;;;;17.83;16.00;;;;;;;;;;5036751;28;20519;-78
2021/09/18 07:15:46;;;;;;;19.10;16.90;;;;;;;;;;5035465;28;20852;-78
2021/09/18 07:18:13;;;;;;;18.70;16.73;;;;;;;;;;5036881;28;20405;-78
2021/09/18 07:20:39;;;;;;;17.77;15.97;;;;;;;;;;5036645;28;20412;-78
2021/09/18 07:23:04;;;;;;;18.63;16.10;;;;;;;;;;5036584;28;20421;-78
2021/09/18 07:25:31;;;;;;;16.50;14.80;;;;;;;;;;5036528;28;20432;-79
2021/09/18 07:27:57;;;;;;;17.80;16.00;;;;;;;;;;5036442;28;20447;-77
2021/09/18 07:30:22;;;;;;;16.67;14.40;;;;;;;;;;5036274;28;20416;-78
2021/09/18 07:32:49;;;;;;;17.87;16.00;;;;;;;;;;5035930;28;20445;-76
2021/09/18 07:35:15;;;;;;;17.93;14.83;;;;;;;;;;5036224;28;20491;-79
2021/09/18 07:37:41;;;;;;;18.87;16.97;;;;;;;;;;5038641;28;20428;-77
2021/09/18 07:40:08;;;;;;;21.50;16.00;;;;;;;;;;5036935;28;20449;-78
2021/09/18 07:42:34;;;;;;;20.10;17.90;;;;;;;;;;5033733;28;20770;-79
2021/09/18 07:45:00;;;;;;;17.67;16.00;;;;;;;;;;5034004;28;20186;-78
2021/09/18 07:47:26;;;;;;;17.63;15.73;;;;;;;;;;5034908;28;20428;-79
2021/09/18 07:49:52;;;;;;;16.77;15.20;;;;;;;;;;5034335;28;20798;-79
2021/09/18 07:52:18;;;;;;;20.47;15.73;;;;;;;;;;5033904;28;20447;-79
2021/09/18 07:54:44;;;;;;;20.90;16.20;;;;;;;;;;5033877;28;20434;-79
2021/09/18 07:57:11;;;;;;;23.30;16.00;;;;;;;;;;5034825;28;20767;-82
2021/09/18 07:59:37;;;;;;;17.47;15.47;;;;;;;;;;5033456;28;20417;-77
2021/09/18 08:02:03;;;;;;;22.87;16.57;;;;;;;;;;5033506;28;20437;-80
2021/09/18 08:04:29;;;;;;;21.80;17.40;;;;;;;;;;5034147;28;20451;-78
2021/09/18 08:06:55;;;;;;;20.80;18.03;;;;;;;;;;5034055;28;20769;-78
2021/09/18 08:09:21;;;;;;;26.80;22.73;;;;;;;;;;5034253;28;20433;-79
2021/09/18 08:11:49;;;;;;;25.00;20.77;;;;;;;;;;5032999;28;20510;-78
2021/09/18 08:14:15;;;;;;;21.63;17.77;;;;;;;;;;5033372;28;20456;-79
2021/09/18 08:16:41;;;;;;;23.07;18.73;;;;;;;;;;5033516;28;20769;-80
2021/09/18 08:19:07;;;;;;;31.23;26.73;;;;;;;;;;5033969;28;20482;-78
2021/09/18 08:21:33;;;;;;;22.80;20.33;;;;;;;;;;5032238;28;20805;-75
2021/09/18 08:23:59;;;;;;;24.20;19.90;;;;;;;;;;5032677;28;20440;-79
2021/09/18 08:26:30;;;;;;;28.17;24.60;;;;;;;;;;5034105;28;20425;-78
2021/09/18 08:28:57;;;;;;;27.43;21.17;;;;;;;;;;5033044;28;20432;-79
2021/09/18 08:31:23;;;;;;;22.43;19.40;;;;;;;;;;5032508;28;20537;-75
2021/09/18 08:33:49;;;;;;;22.23;19.90;;;;;;;;;;5032052;28;20599;-78
2021/09/18 08:36:15;;;;;;;25.93;21.80;;;;;;;;;;5033470;28;20412;-76
2021/09/18 08:38:41;;;;;;;25.97;20.77;;;;;;;;;;5036601;28;20954;-76
2021/09/18 08:41:08;;;;;;;26.37;21.30;;;;;;;;;;5047630;28;20448;-80
2021/09/18 08:43:34;;;;;;;24.87;22.10;;;;;;;;;;5052906;28;20405;-79
2021/09/18 08:46:00;;;;;;;24.80;19.60;;;;;;;;;;5053731;28;20412;-77
2021/09/18 08:48:26;;;;;;;24.63;18.20;;;;;;;;;;5053565;28;20386;-77
2021/09/18 08:50:53;;;;;;;24.77;19.20;;;;;;;;;;5052279;28;20447;-80
2021/09/18 08:53:20;;;;;;;21.00;17.63;;;;;;;;;;5053554;28;20399;-78
2021/09/18 08:55:56;;;;;;;24.83;15.77;;;;;;;;;;5053346;28;20403;-77
2021/09/18 08:58:23;;;;;;;17.73;15.93;;;;;;;;;;5052455;28;21166;-80
2021/09/18 09:00:51;;;;;;;20.33;18.17;;;;;;;;;;5052629;28;20532;-76
2021/09/18 09:03:23;;;;;;;23.27;18.27;;;;;;;;;;5053133;28;20473;-79
2021/09/18 09:05:49;;;;;;;20.60;17.23;;;;;;;;;;5035194;28;20460;-77
2021/09/18 09:08:16;;;;;;;18.13;16.03;;;;;;;;;;5034556;28;20428;-79
2021/09/18 09:10:43;;;;;;;21.47;17.00;;;;;;;;;;5032894;28;20537;-80
2021/09/18 09:13:14;;;;;;;17.33;15.60;;;;;;;;;;5032263;28;20623;-77
2021/09/18 09:15:43;;;;;;;18.17;16.27;;;;;;;;;;5032787;28;20464;-78
2021/09/18 09:18:15;;;;;;;19.33;17.30;;;;;;;;;;5047888;28;20965;-78
2021/09/18 09:20:42;;;;;;;20.57;18.47;;;;;;;;;;5047217;28;20433;-79
2021/09/18 09:23:19;;;;;;;29.33;19.00;;;;;;;;;;5032500;28;20418;-77
2021/09/18 09:25:49;;;;;;;24.43;20.10;;;;;;;;;;5032736;28;20439;-76
2021/09/18 09:28:48;;;;;;;24.80;21.67;;;;;;;;;;5047813;28;20439;-81
2021/09/18 09:31:23;;;;;;;26.67;21.30;;;;;;;;;;5043341;28;20487;-77
2021/09/18 09:33:56;;;;;;;25.07;20.97;;;;;;;;;;5034208;28;20464;-77
2021/09/18 09:36:22;;;;;;;25.00;22.30;;;;;;;;;;5034204;28;20862;-78
2021/09/18 09:38:55;;;;;;;31.50;21.87;;;;;;;;;;5034013;28;20414;-76
2021/09/18 09:41:31;;;;;;;29.30;25.67;;;;;;;;;;5033801;28;20500;-80
2021/09/18 09:43:58;;;;;;;31.37;26.40;;;;;;;;;;5034002;28;20495;-79
2021/09/18 09:46:24;;;;;;;31.57;25.10;;;;;;;;;;5034056;28;20496;-78
2021/09/18 09:49:01;;;;;;;29.60;25.63;;;;;;;;;;5033793;28;20928;-78
2021/09/18 09:51:27;;;;;;;34.70;27.27;;;;;;;;;;5033462;28;20772;-78
2021/09/18 09:53:53;;;;;;;34.17;27.47;;;;;;;;;;5033780;28;20492;-79
2021/09/18 09:56:25;;;;;;;29.23;26.13;;;;;;;;;;5049358;28;20925;-79
2021/09/18 09:58:52;;;;;;;31.67;25.20;;;;;;;;;;5033603;28;20917;-78
2021/09/18 10:01:17;;;;;;;30.93;24.03;;;;;;;;;;5033158;28;20490;-77
2021/09/18 10:03:45;;;;;;;32.70;28.17;;;;;;;;;;5033584;28;20425;-75
2021/09/18 10:06:11;;;;;;;34.27;28.23;;;;;;;;;;5033520;28;20421;-75
2021/09/18 10:08:38;;;;;;;29.43;26.20;;;;;;;;;;5033402;28;20419;-75
2021/09/18 10:11:04;;;;;;;30.70;24.40;;;;;;;;;;5033138;28;20420;-76
2021/09/18 10:13:30;;;;;;;33.47;26.40;;;;;;;;;;5033587;28;20495;-75
2021/09/18 10:15:56;;;;;;;30.53;27.00;;;;;;;;;;5048737;28;20470;-77
2021/09/18 10:18:27;;;;;;;29.60;23.93;;;;;;;;;;5033548;28;20412;-75
2021/09/18 10:23:22;;;;;;;27.67;23.20;;;;;;;;;;5033557;28;20420;-74
2021/09/18 10:25:55;;;;;;;33.33;26.47;;;;;;;;;;5033136;28;20417;-77
2021/09/18 10:28:25;;;;;;;23.77;19.20;;;;;;;;;;5033437;28;20488;-76
2021/09/18 10:30:52;;;;;;;25.53;22.83;;;;;;;;;;5033163;28;21036;-75
2021/09/18 10:33:37;;;;;;;20.03;18.03;;;;;;;;;;5032979;28;20432;-76
2021/09/18 10:36:09;;;;;;;22.63;19.83;;;;;;;;;;5033453;28;20476;-75
2021/09/18 10:38:40;;;;;;;27.67;23.80;;;;;;;;;;5033408;28;20412;-77
2021/09/18 10:41:08;;;;;;;27.00;22.40;;;;;;;;;;5032828;28;20397;-75
2021/09/18 10:43:36;;;;;;;28.27;24.57;;;;;;;;;;5033319;28;20407;-77
2021/09/18 10:46:02;;;;;;;25.57;22.87;;;;;;;;;;5033187;28;20397;-76
2021/09/18 10:48:39;;;;;;;28.27;24.80;;;;;;;;;;5033128;28;20397;-76
2021/09/18 10:51:05;;;;;;;25.87;20.90;;;;;;;;;;5032696;28;20483;-75
2021/09/18 10:53:51;;;;;;;25.80;21.03;;;;;;;;;;5032792;28;20440;-75
2021/09/18 10:56:17;;;;;;;25.87;23.20;;;;;;;;;;5033004;28;20441;-74
2021/09/18 10:59:02;;;;;;;22.73;19.53;;;;;;;;;;5032954;28;20440;-75
2021/09/18 11:01:28;;;;;;;19.90;16.80;;;;;;;;;;5032367;28;20515;-75
2021/09/18 11:03:55;;;;;;;18.90;17.00;;;;;;;;;;5032920;28;20810;-76
2021/09/18 11:06:37;;;;;;;19.97;18.00;;;;;;;;;;5032890;28;20408;-74
2021/09/18 11:09:03;;;;;;;19.50;17.57;;;;;;;;;;5032957;28;20503;-76
2021/09/18 11:11:30;;;;;;;18.77;17.07;;;;;;;;;;5032496;28;20823;-75
2021/09/18 11:13:56;;;;;;;18.77;16.90;;;;;;;;;;5032718;28;20469;-76
2021/09/18 11:16:48;;;;;;;15.10;13.50;;;;;;;;;;5032972;28;20436;-76
2021/09/18 11:19:17;;;;;;;15.83;12.33;;;;;;;;;;5033421;28;20443;-74
2021/09/18 11:21:45;;;;;;;14.00;11.40;;;;;;;;;;5032589;28;20952;-75
2021/09/18 11:24:16;;;;;;;12.37;11.17;;;;;;;;;;5032783;28;20823;-75
2021/09/18 11:26:42;;;;;;;15.27;13.67;;;;;;;;;;5032681;28;20747;-75
2021/09/18 11:29:11;;;;;;;14.17;12.77;;;;;;;;;;5032786;28;20420;-75
2021/09/18 11:31:53;;;;;;;11.90;10.80;;;;;;;;;;5032110;28;20929;-76
2021/09/18 11:34:22;;;;;;;14.40;12.90;;;;;;;;;;5032418;28;20468;-75
2021/09/18 11:36:48;;;;;;;13.67;12.37;;;;;;;;;;5033358;28;20470;-74
2021/09/18 11:39:14;;;;;;;15.07;13.63;;;;;;;;;;5036376;28;20965;-75
2021/09/18 11:41:40;;;;;;;12.70;11.53;;;;;;;;;;5035936;28;20788;-77
2021/09/18 11:44:11;;;;;;;13.77;12.37;;;;;;;;;;5036214;28;20578;-75
2021/09/18 11:46:37;;;;;;;11.33;10.23;;;;;;;;;;5036256;28;20409;-77
2021/09/18 11:49:06;;;;;;;10.60;9.40;;;;;;;;;;5036264;28;20779;-75
2021/09/18 11:51:32;;;;;;;12.10;11.00;;;;;;;;;;5035754;28;20778;-75
2021/09/18 11:53:59;;;;;;;11.30;10.20;;;;;;;;;;5035958;28;20456;-77
2021/09/18 11:56:25;;;;;;;11.13;9.37;;;;;;;;;;5035787;28;20500;-75
2021/09/18 11:58:51;;;;;;;10.13;8.97;;;;;;;;;;5036034;28;20488;-74
2021/09/18 12:01:17;;;;;;;10.60;9.50;;;;;;;;;;5035585;28;20933;-74
2021/09/18 12:03:44;;;;;;;9.43;8.50;;;;;;;;;;5035839;28;20409;-76
2021/09/18 12:06:11;;;;;;;10.10;9.17;;;;;;;;;;5035449;28;20409;-76
2021/09/18 12:08:38;;;;;;;14.20;9.83;;;;;;;;;;5035885;28;20413;-76
2021/09/18 12:11:04;;;;;;;10.90;9.23;;;;;;;;;;5035262;28;20925;-76
2021/09/18 12:13:30;;;;;;;10.90;9.90;;;;;;;;;;5035465;28;20409;-76
2021/09/18 12:16:02;;;;;;;11.10;10.00;;;;;;;;;;5035668;28;20413;-75
2021/09/18 12:18:29;;;;;;;10.50;9.50;;;;;;;;;;5035829;28;20404;-74
2021/09/18 12:21:06;;;;;;;11.07;9.90;;;;;;;;;;5035232;28;20402;-75
2021/09/18 12:23:33;;;;;;;9.13;7.37;;;;;;;;;;5035678;28;20393;-75
2021/09/18 12:26:01;;;;;;;7.23;6.63;;;;;;;;;;5035564;28;20463;-76
2021/09/18 12:28:28;;;;;;;7.93;7.23;;;;;;;;;;5035444;28;20902;-76
2021/09/18 12:30:54;;;;;;;7.83;7.03;;;;;;;;;;5035127;28;20773;-76
2021/09/18 12:33:27;;;;;;;9.50;7.90;;;;;;;;;;5033907;28;20922;-76
2021/09/18 12:35:53;;;;;;;9.50;8.50;;;;;;;;;;5035397;28;20425;-76
2021/09/18 12:38:19;;;;;;;8.70;7.90;;;;;;;;;;5035080;28;20409;-77
2021/09/18 12:40:47;;;;;;;9.50;8.60;;;;;;;;;;5034955;28;20417;-76
2021/09/18 12:43:13;;;;;;;10.07;9.07;;;;;;;;;;5035301;28;20437;-76
2021/09/18 12:45:39;;;;;;;9.80;8.80;;;;;;;;;;5035240;28;20753;-75
2021/09/18 12:48:13;;;;;;;9.77;8.87;;;;;;;;;;5035066;28;20405;-75
2021/09/18 12:50:58;;;;;;;10.73;9.63;;;;;;;;;;5034744;28;20480;-76
2021/09/18 12:53:23;;;;;;;7.80;7.10;;;;;;;;;;5034940;28;20397;-75
2021/09/18 12:56:09;;;;;;;9.57;7.70;;;;;;;;;;5034874;28;20972;-75
2021/09/18 12:58:35;;;;;;;8.60;7.90;;;;;;;;;;5034722;28;20415;-76
2021/09/18 13:01:02;;;;;;;9.33;7.90;;;;;;;;;;5034355;28;20510;-75
2021/09/18 13:03:28;;;;;;;9.80;8.87;;;;;;;;;;5034669;28;20435;-75
2021/09/18 13:06:07;;;;;;;11.20;10.07;;;;;;;;;;5045021;28;20785;-75
2021/09/18 13:08:42;;;;;;;9.33;8.43;;;;;;;;;;5044806;28;20405;-75
2021/09/18 13:11:13;;;;;;;9.90;9.03;;;;;;;;;;5045070;28;20408;-75
2021/09/18 13:13:39;;;;;;;8.60;7.13;;;;;;;;;;5053430;28;20416;-76
2021/09/18 13:16:05;;;;;;;8.63;7.23;;;;;;;;;;5043346;28;20465;-75
2021/09/18 13:18:42;;;;;;;9.30;8.50;;;;;;;;;;5043709;28;20412;-76
2021/09/18 13:21:08;;;;;;;8.80;8.00;;;;;;;;;;5046063;28;20446;-75
2021/09/18 13:23:35;;;;;;;7.23;6.50;;;;;;;;;;5054365;28;20404;-75
2021/09/18 13:26:01;;;;;;;8.57;7.87;;;;;;;;;;5045097;28;20423;-76
2021/09/18 13:28:28;;;;;;;6.70;6.10;;;;;;;;;;5054037;28;20510;-76
2021/09/18 13:30:55;;;;;;;6.50;5.90;;;;;;;;;;5047873;28;20420;-76
2021/09/18 13:33:21;;;;;;;10.07;5.43;;;;;;;;;;5039184;28;20436;-76
2021/09/18 13:35:47;;;;;;;6.13;5.50;;;;;;;;;;5033914;28;20491;-78
2021/09/18 13:38:13;;;;;;;7.60;6.70;;;;;;;;;;5034180;28;20416;-76
2021/09/18 13:40:39;;;;;;;6.80;6.30;;;;;;;;;;5033873;28;20451;-77
2021/09/18 13:43:05;;;;;;;8.20;7.50;;;;;;;;;;5034043;28;20429;-75
2021/09/18 13:45:31;;;;;;;7.00;6.40;;;;;;;;;;5034053;28;20416;-74
2021/09/18 13:47:57;;;;;;;7.30;6.60;;;;;;;;;;5034034;28;20413;-75
2021/09/18 13:50:23;;;;;;;7.17;6.57;;;;;;;;;;5033854;28;20769;-74
2021/09/18 13:52:49;;;;;;;6.90;6.30;;;;;;;;;;5038425;28;20445;-75
2021/09/18 13:55:15;;;;;;;7.77;7.07;;;;;;;;;;5033694;28;20468;-74
2021/09/18 13:57:42;;;;;;;7.50;6.57;;;;;;;;;;5033699;28;20459;-75
2021/09/18 14:00:09;;;;;;;7.20;6.60;;;;;;;;;;5033182;28;20401;-75
2021/09/18 14:02:35;;;;;;;7.60;6.80;;;;;;;;;;5033197;28;20789;-76
2021/09/18 14:05:01;;;;;;;6.77;6.10;;;;;;;;;;5033389;28;20408;-74
2021/09/18 14:07:27;;;;;;;6.57;6.00;;;;;;;;;;5033504;28;20416;-76
2021/09/18 14:09:55;;;;;;;6.60;6.00;;;;;;;;;;5033622;28;20460;-75
2021/09/18 14:12:21;;;;;;;6.80;6.20;;;;;;;;;;5033042;28;20443;-76
2021/09/18 14:14:47;;;;;;;6.50;5.90;;;;;;;;;;5033302;28;21044;-75
2021/09/18 14:17:13;;;;;;;6.03;5.53;;;;;;;;;;5033212;28;20428;-75
2021/09/18 14:19:39;;;;;;;9.50;6.07;;;;;;;;;;5035145;28;20405;-75
2021/09/18 14:22:05;;;;;;;7.10;6.50;;;;;;;;;;5033016;28;20429;-74
2021/09/18 14:24:31;;;;;;;7.23;6.63;;;;;;;;;;5033207;28;20421;-74